Time;durP1;ratioP1;P1;durP2;ratioP2;P2;SDS_P1;SDS_P2;PMS_P1;PMS_P2;Temp;Humidity;BMP_temperature;BMP_pressure;BME280_temperature;BME280_humidity;BME280_pressure;Samples;Min_cycle;Max_cycle;Signal;HPM_P1;HPM_P2
2023/05/29 00:04:51;;;;;;;0.65;0.35;;;;;;;14.85;51.93;101576.03;15671020;28;20053;-50
2023/05/29 00:12:25;;;;;;;;;;;;;;;14.76;52.10;101571.94;15687412;28;20041;-52
2023/05/29 00:19:58;;;;;;;0.93;0.50;;;;;;;14.82;51.90;101571.06;15653746;28;19932;-53
2023/05/29 00:27:33;;;;;;;2.28;0.88;;;;;;;14.76;51.76;101572.75;15667579;28;20101;-51
2023/05/29 00:35:07;;;;;;;2.25;1.63;;;;;;;15.16;50.79;101575.19;15699608;28;20045;-52
2023/05/29 00:42:42;;;;;;;0.10;0.10;;;;;;;15.30;50.16;101579.44;15656391;28;20052;-51
2023/05/29 00:50:15;;;;;;;1.77;1.30;;;;;;;15.01;50.84;101590.88;15692462;28;20528;-52
2023/05/29 00:57:50;;;;;;;4.65;1.55;;;;;;;15.01;50.80;101580.94;15668129;28;20448;-49
2023/05/29 01:05:23;;;;;;;1.35;1.08;;;;;;;14.79;51.50;101579.63;15666683;28;20136;-50
2023/05/29 01:13:05;;;;;;;1.45;0.98;;;;;;;14.58;51.64;101582.63;15685504;28;20114;-52
2023/05/29 01:20:42;;;;;;;1.75;0.82;;;;;;;14.39;52.19;101582.47;15681419;28;20184;-52
2023/05/29 01:28:20;;;;;;;5.00;1.17;;;;;;;14.23;52.49;101581.09;15680664;28;20037;-52
2023/05/29 01:35:53;;;;;;;0.20;0.20;;;;;;;14.04;53.17;101579.31;15695380;28;20068;-52
2023/05/29 01:43:28;;;;;;;0.85;0.82;;;;;;;14.00;53.23;101596.97;15663223;28;20501;-55
2023/05/29 01:51:01;;;;;;;3.00;1.02;;;;;;;13.95;52.81;101602.19;15653889;28;20508;-54
2023/05/29 01:58:36;;;;;;;1.20;0.47;;;;;;;13.82;53.20;101610.28;15667024;28;20040;-51
2023/05/29 02:06:10;;;;;;;0.52;0.22;;;;;;;13.63;53.67;101606.59;15684560;28;20045;-53
2023/05/29 02:13:45;;;;;;;1.40;0.43;;;;;;;13.39;54.60;101602.66;15661050;28;20099;-51
2023/05/29 02:21:18;;;;;;;0.77;0.40;;;;;;;13.18;55.76;101603.66;15679133;28;20087;-52
2023/05/29 02:28:52;;;;;;;2.20;0.77;;;;;;;13.01;56.21;101605.94;15659330;28;20045;-49
2023/05/29 02:36:25;;;;;;;0.40;0.32;;;;;;;13.02;56.63;101596.81;15673599;28;20052;-52
2023/05/29 02:44:00;;;;;;;1.85;1.05;;;;;;;12.95;57.18;101604.84;15681095;28;20554;-54
2023/05/29 02:51:33;;;;;;;1.10;0.80;;;;;;;12.82;58.03;101607.53;15665522;28;20043;-53
2023/05/29 02:59:09;;;;;;;1.33;0.57;;;;;;;12.76;58.09;101601.09;15676219;28;20041;-52
2023/05/29 03:06:42;;;;;;;4.13;1.58;;;;;;;12.65;57.97;101609.78;15678217;28;20040;-50
2023/05/29 03:14:16;;;;;;;0.93;0.87;;;;;;;12.67;58.39;101618.47;15661721;28;20390;-53
2023/05/29 03:21:50;;;;;;;4.03;0.90;;;;;;;12.83;58.67;101625.38;15662778;28;20382;-53
2023/05/29 03:29:25;;;;;;;1.42;0.68;;;;;;;12.53;60.12;101624.84;15675008;28;20087;-52
2023/05/29 03:37:00;;;;;;;2.10;1.48;;;;;;;12.79;59.06;101629.50;15656432;28;20555;-50
2023/05/29 03:44:36;;;;;;;4.93;1.02;;;;;;;12.75;59.41;101626.38;15663507;28;20084;-52
2023/05/29 03:52:11;;;;;;;1.15;1.05;;;;;;;12.70;59.93;101631.53;15676815;28;20185;-50
2023/05/29 03:59:49;;;;;;;0.75;0.52;;;;;;;12.37;60.60;101639.50;15674778;28;20514;-53
2023/05/29 04:07:22;;;;;;;0.82;0.75;;;;;;;12.98;59.44;101642.19;15681291;28;20421;-52
2023/05/29 04:14:56;;;;;;;2.55;1.15;;;;;;;13.03;59.20;101645.09;15670507;28;20044;-55
2023/05/29 04:22:29;;;;;;;1.40;0.80;;;;;;;13.11;59.50;101654.03;15659495;28;20486;-51
2023/05/29 04:30:05;;;;;;;3.03;0.70;;;;;;;13.33;58.77;101658.22;15656041;28;20037;-52
2023/05/29 04:37:44;;;;;;;3.15;1.13;;;;;;;13.98;57.54;101663.81;15644806;28;20240;-52
2023/05/29 04:45:22;;;;;;;1.67;0.75;;;;;;;14.04;56.82;101666.53;15673679;28;20536;-52
2023/05/29 04:52:55;;;;;;;1.48;0.68;;;;;;;14.09;57.22;101662.38;15677640;28;20048;-53
2023/05/29 05:00:29;;;;;;;0.43;0.43;;;;;;;14.53;55.64;101670.56;15683289;28;20041;-51
2023/05/29 05:08:02;;;;;;;0.57;0.57;;;;;;;14.37;56.59;101657.50;15667624;28;20382;-51
2023/05/29 05:15:39;;;;;;;2.25;1.30;;;;;;;15.24;54.28;101663.31;15652052;28;20589;-52
2023/05/29 05:23:12;;;;;;;1.00;0.65;;;;;;;15.44;54.39;101665.91;15668046;28;20587;-53
2023/05/29 05:30:46;;;;;;;0.85;0.68;;;;;;;15.89;53.24;101669.28;15637932;28;20045;-52
2023/05/29 05:38:19;;;;;;;3.30;1.10;;;;;;;15.92;52.51;101681.56;15664320;28;20124;-48
2023/05/29 05:45:53;;;;;;;1.25;0.80;;;;;;;16.47;50.74;101687.03;15674773;28;20409;-50
2023/05/29 05:53:28;;;;;;;0.47;0.28;;;;;;;17.03;48.76;101680.50;15662854;28;20140;-50
2023/05/29 06:01:02;;;;;;;3.88;0.40;;;;;;;17.43;46.98;101696.19;15672163;28;20036;-52
2023/05/29 06:08:35;;;;;;;0.93;0.77;;;;;;;18.43;45.03;101693.44;15652410;28;20037;-53
2023/05/29 06:16:10;;;;;;;;;;;;;;;19.03;44.84;101700.38;15656659;28;20200;-53
2023/05/29 06:23:43;;;;;;;2.47;1.25;;;;;;;18.51;44.72;101705.81;15678360;28;19967;-53
2023/05/29 06:31:18;;;;;;;1.00;0.60;;;;;;;19.52;42.96;101714.31;15662216;28;20565;-51
2023/05/29 06:38:51;;;;;;;0.43;0.43;;;;;;;20.01;41.08;101722.78;15660230;28;20526;-52
2023/05/29 06:46:26;;;;;;;0.98;0.65;;;;;;;20.23;41.70;101720.09;15659067;28;20068;-53
2023/05/29 06:54:02;;;;;;;0.77;0.50;;;;;;;20.76;38.60;101724.13;15681911;28;20127;-54
2023/05/29 07:01:37;;;;;;;0.38;0.28;;;;;;;20.77;39.27;101723.88;15686729;28;20044;-52
2023/05/29 07:09:10;;;;;;;0.57;0.30;;;;;;;21.38;38.03;101727.28;15679914;28;20624;-55
2023/05/29 07:16:44;;;;;;;0.68;0.38;;;;;;;20.63;36.60;101733.50;15683719;28;20047;-52
2023/05/29 07:24:18;;;;;;;0.00;0.00;;;;;;;22.19;35.33;101737.25;15659665;28;20073;-54
2023/05/29 07:31:56;;;;;;;0.10;0.10;;;;;;;22.92;32.86;101735.47;15677144;28;20041;-54
2023/05/29 07:39:30;;;;;;;0.35;0.30;;;;;;;23.38;31.68;101732.00;15637162;28;20041;-51
2023/05/29 07:47:10;;;;;;;0.70;0.30;;;;;;;23.26;33.50;101735.00;15656998;28;20040;-52
2023/05/29 07:54:56;;;;;;;0.95;0.40;;;;;;;22.83;33.75;101745.25;15660013;28;20080;-52
2023/05/29 08:02:31;;;;;;;1.52;0.52;;;;;;;21.98;33.91;101746.38;15662602;28;20045;-52
2023/05/29 08:10:27;;;;;;;0.60;0.43;;;;;;;22.38;33.86;101752.16;15663760;28;20464;-51
2023/05/29 08:18:01;;;;;;;0.10;0.10;;;;;;;20.79;35.68;101761.81;15659188;28;20418;-52
2023/05/29 08:25:34;;;;;;;0.68;0.50;;;;;;;22.56;34.41;101750.06;15670789;28;20076;-52
2023/05/29 08:33:08;;;;;;;0.70;0.60;;;;;;;22.80;32.81;101758.66;15683311;28;20041;-53
2023/05/29 08:40:41;;;;;;;1.15;0.55;;;;;;;22.88;33.69;101744.44;15666145;28;20083;-53
2023/05/29 08:48:17;;;;;;;1.85;0.20;;;;;;;24.50;32.72;101739.38;15689652;28;20056;-53
2023/05/29 08:55:52;;;;;;;2.40;0.57;;;;;;;24.04;31.96;101744.94;15688455;28;20044;-52
2023/05/29 09:03:26;;;;;;;0.38;0.22;;;;;;;23.88;31.19;101750.44;15692987;28;20116;-51
2023/05/29 09:11:03;;;;;;;1.08;0.63;;;;;;;22.89;33.11;101759.81;15667341;28;20055;-54
2023/05/29 09:18:38;;;;;;;3.50;0.55;;;;;;;22.34;35.41;101759.25;15664481;28;20099;-52
2023/05/29 09:26:15;;;;;;;0.20;0.13;;;;;;;22.03;35.60;101763.66;15662968;28;20339;-54
2023/05/29 09:33:51;;;;;;;1.30;0.80;;;;;;;21.51;36.18;101753.38;15668097;28;20064;-52
2023/05/29 09:41:24;;;;;;;0.45;0.30;;;;;;;23.67;36.58;101765.22;15692672;28;20080;-49
2023/05/29 09:49:02;;;;;;;0.75;0.47;;;;;;;24.99;33.42;101755.91;15695562;28;20075;-52
2023/05/29 09:56:36;;;;;;;0.90;0.50;;;;;;;25.26;31.53;101750.03;15698569;22;20114;-48
2023/05/29 10:04:11;;;;;;;0.95;0.47;;;;;;;24.99;33.25;101747.66;15702680;28;20039;-46
2023/05/29 10:11:45;;;;;;;0.30;0.20;;;;;;;24.83;32.70;101741.44;15708689;28;20041;-49
2023/05/29 10:19:23;;;;;;;1.88;0.68;;;;;;;23.77;33.98;101742.47;15715296;28;20102;-48
2023/05/29 10:27:05;;;;;;;3.78;0.73;;;;;;;25.64;32.19;101750.31;15715777;28;20048;-50
2023/05/29 10:34:46;;;;;;;1.08;0.50;;;;;;;25.64;30.86;101734.63;15745147;28;20471;-47
2023/05/29 10:42:47;;;;;;;0.77;0.45;;;;;;;24.06;32.51;101743.56;15757290;28;20044;-49
2023/05/29 10:50:36;;;;;;;1.00;0.63;;;;;;;23.82;32.78;101728.75;15739496;28;20048;-44
2023/05/29 10:58:13;;;;;;;0.82;0.50;;;;;;;24.26;33.88;101736.41;15720610;28;20509;-46
2023/05/29 11:05:59;;;;;;;2.70;1.00;;;;;;;25.04;32.23;101728.44;15723494;28;20601;-48
2023/05/29 11:13:34;;;;;;;3.55;0.70;;;;;;;26.48;28.58;101711.56;15732411;28;20053;-48
2023/05/29 11:21:23;;;;;;;2.78;0.57;;;;;;;26.64;26.37;101726.78;15682373;28;20287;-49
2023/05/29 11:28:59;;;;;;;2.42;0.35;;;;;;;27.24;28.58;101718.03;15698392;28;20120;-47
2023/05/29 11:36:33;;;;;;;3.33;0.43;;;;;;;24.95;28.66;101724.63;15697792;28;20049;-49
2023/05/29 11:44:06;;;;;;;0.52;0.32;;;;;;;25.02;29.58;101716.06;15701712;28;20085;-48
2023/05/29 11:51:44;;;;;;;1.48;0.57;;;;;;;26.40;27.02;101710.25;15724621;28;20052;-51
2023/05/29 11:59:16;;;;;;;1.23;0.45;;;;;;;27.50;27.27;101702.69;15694954;28;20131;-51
2023/05/29 12:06:50;;;;;;;0.73;0.30;;;;;;;27.75;25.62;101711.72;15736084;28;20136;-48
2023/05/29 12:14:23;;;;;;;2.85;0.77;;;;;;;27.71;28.36;101703.19;15702318;28;20056;-53
2023/05/29 12:21:57;;;;;;;0.95;0.50;;;;;;;25.94;28.61;101708.00;15703481;28;20569;-49
2023/05/29 12:29:34;;;;;;;0.88;0.40;;;;;;;27.14;26.56;101688.66;15716269;28;20396;-48
2023/05/29 12:37:13;;;;;;;0.43;0.20;;;;;;;27.33;26.10;101691.41;15688926;28;20140;-47
2023/05/29 12:44:46;;;;;;;1.35;0.70;;;;;;;25.99;28.31;101696.13;15687529;28;20052;-51
2023/05/29 12:52:24;;;;;;;0.65;0.47;;;;;;;24.55;29.16;101692.69;15706937;28;20118;-46
2023/05/29 12:59:57;;;;;;;1.20;0.68;;;;;;;25.18;28.64;101684.66;15717372;28;20032;-49
2023/05/29 13:07:32;;;;;;;6.40;0.73;;;;;;;25.31;28.71;101689.53;15736001;28;20942;-47
2023/05/29 13:15:06;;;;;;;4.57;0.93;;;;;;;23.92;30.61;101682.13;15727275;28;20052;-49
2023/05/29 13:22:42;;;;;;;0.95;0.43;;;;;;;23.60;30.18;101679.69;15693474;28;20124;-49
2023/05/29 13:30:16;;;;;;;1.02;0.40;;;;;;;24.28;29.92;101665.59;15717073;28;20056;-48
2023/05/29 13:37:50;;;;;;;0.95;0.50;;;;;;;24.80;29.79;101669.78;15712667;28;20057;-46
2023/05/29 13:45:23;;;;;;;0.88;0.35;;;;;;;24.20;29.19;101664.22;15707222;28;20052;-48
2023/05/29 13:52:57;;;;;;;1.48;0.80;;;;;;;24.10;29.47;101672.50;15716250;28;20093;-51
2023/05/29 14:00:30;;;;;;;0.52;0.28;;;;;;;24.61;28.82;101669.59;15728726;28;20490;-48
2023/05/29 14:08:04;;;;;;;1.45;0.50;;;;;;;24.72;29.62;101667.66;15708592;28;20713;-47
2023/05/29 14:15:36;;;;;;;1.33;0.50;;;;;;;24.50;29.90;101657.03;15716425;28;20041;-52
2023/05/29 14:23:13;;;;;;;3.67;0.30;;;;;;;24.55;29.02;101670.75;15722529;28;20534;-49
2023/05/29 14:30:46;;;;;;;0.80;0.38;;;;;;;23.71;30.78;101667.66;15659846;28;20232;-50
2023/05/29 14:38:20;;;;;;;1.25;0.57;;;;;;;23.66;29.28;101663.00;15684587;28;20052;-51
2023/05/29 14:45:53;;;;;;;1.17;0.50;;;;;;;23.89;27.89;101655.28;15730128;28;20049;-51
2023/05/29 14:53:27;;;;;;;0.40;0.35;;;;;;;23.23;30.71;101649.81;15700671;28;20045;-52
2023/05/29 15:01:00;;;;;;;0.28;0.20;;;;;;;23.33;30.20;101644.34;15708834;28;20051;-55
2023/05/29 15:08:34;;;;;;;4.57;0.60;;;;;;;23.58;29.96;101647.06;15679216;28;20041;-52
2023/05/29 15:16:07;;;;;;;1.77;0.80;;;;;;;23.51;28.96;101641.03;15681895;28;20060;-54
2023/05/29 15:23:43;;;;;;;0.20;0.20;;;;;;;23.14;29.43;101642.13;15717133;28;20160;-52
2023/05/29 15:31:16;;;;;;;1.70;0.60;;;;;;;23.31;30.11;101638.28;15698659;28;20043;-50
2023/05/29 15:38:50;;;;;;;0.73;0.30;;;;;;;23.34;30.36;101635.84;15706786;28;20061;-46
2023/05/29 15:46:24;;;;;;;0.95;0.40;;;;;;;22.51;31.40;101635.09;15680015;28;20064;-47
2023/05/29 15:53:59;;;;;;;2.25;0.43;;;;;;;22.26;32.19;101639.41;15703013;22;20062;-48
2023/05/29 16:01:32;;;;;;;0.70;0.30;;;;;;;22.48;31.71;101638.41;15617942;28;20107;-51
2023/05/29 16:09:06;;;;;;;2.25;0.65;;;;;;;22.01;31.99;101640.06;15617159;28;20041;-47
2023/05/29 16:16:39;;;;;;;1.10;0.47;;;;;;;22.29;32.33;101641.59;15577144;28;20053;-51
2023/05/29 16:24:13;;;;;;;1.58;0.45;;;;;;;22.12;32.60;101616.34;15598763;28;20443;-50
2023/05/29 16:31:46;;;;;;;1.60;0.80;;;;;;;21.76;33.12;101650.81;15599960;28;20100;-51
2023/05/29 16:39:21;;;;;;;1.73;0.52;;;;;;;21.44;33.88;101648.94;15606389;28;20149;-50
2023/05/29 16:46:54;;;;;;;0.90;0.40;;;;;;;21.77;33.29;101639.63;15622728;28;20474;-48
2023/05/29 16:54:30;;;;;;;0.50;0.32;;;;;;;21.17;33.76;101640.78;15609010;28;20033;-47
2023/05/29 17:02:03;;;;;;;0.68;0.30;;;;;;;21.59;33.16;101650.97;15613722;28;20304;-48
2023/05/29 17:09:37;;;;;;;0.98;0.40;;;;;;;21.09;33.78;101657.63;15595307;28;20057;-52
2023/05/29 17:17:10;;;;;;;0.45;0.30;;;;;;;21.15;33.03;101656.59;15609157;28;20049;-49
2023/05/29 17:24:45;;;;;;;;;;;;;;;21.24;33.64;101655.03;15625957;28;20533;-49
2023/05/29 17:32:17;;;;;;;1.90;0.50;;;;;;;20.69;32.70;101649.81;15622737;28;19983;-48
2023/05/29 17:39:52;;;;;;;;;;;;;;;20.39;32.00;101651.91;15593646;28;20076;-48
2023/05/29 17:47:24;;;;;;;0.77;0.38;;;;;;;20.04;32.57;101652.22;15602608;28;20397;-48
2023/05/29 17:54:59;;;;;;;0.45;0.35;;;;;;;20.22;32.24;101662.03;15599159;28;20576;-47
2023/05/29 18:02:31;;;;;;;0.82;0.40;;;;;;;19.91;32.99;101655.34;15596405;28;20060;-48
2023/05/29 18:10:07;;;;;;;1.13;0.63;;;;;;;20.18;33.20;101666.34;15597339;28;20079;-50
2023/05/29 18:17:40;;;;;;;0.73;0.55;;;;;;;20.08;33.43;101656.13;15617462;28;20433;-51
2023/05/29 18:25:16;;;;;;;1.00;0.35;;;;;;;20.12;33.87;101665.44;15609752;28;20120;-52
2023/05/29 18:32:49;;;;;;;0.80;0.45;;;;;;;20.02;33.82;101669.94;15578033;28;20449;-49
2023/05/29 18:40:23;;;;;;;1.33;0.68;;;;;;;19.53;34.67;101670.50;15592325;28;20136;-54
2023/05/29 18:47:57;;;;;;;3.13;0.65;;;;;;;19.45;34.95;101673.66;15614973;28;20049;-49
2023/05/29 18:55:31;;;;;;;3.20;0.57;;;;;;;19.49;34.20;101673.97;15605860;28;20041;-52
2023/05/29 19:03:04;;;;;;;0.70;0.40;;;;;;;19.22;35.06;101680.06;15629085;28;20103;-53
2023/05/29 19:10:41;;;;;;;5.20;0.73;;;;;;;18.41;34.04;101681.13;15585148;28;20434;-55
2023/05/29 19:18:15;;;;;;;1.15;0.08;;;;;;;18.33;35.02;101685.88;15611429;28;20107;-51
2023/05/29 19:25:50;;;;;;;1.35;0.88;;;;;;;17.96;34.03;101704.34;15615069;28;20107;-49
2023/05/29 19:33:23;;;;;;;0.63;0.40;;;;;;;17.84;33.38;101703.50;15576681;28;20081;-51
2023/05/29 19:40:57;;;;;;;0.95;0.20;;;;;;;17.92;32.96;101715.91;15606397;28;20088;-52
2023/05/29 19:48:35;;;;;;;0.52;0.43;;;;;;;18.00;33.65;101726.41;15609409;28;20057;-47
2023/05/29 19:56:09;;;;;;;1.27;0.88;;;;;;;17.69;33.16;101722.09;15592636;28;20049;-51
2023/05/29 20:03:42;;;;;;;2.63;0.90;;;;;;;17.88;33.06;101736.44;15624547;28;20041;-49
2023/05/29 20:11:17;;;;;;;0.53;0.20;;;;;;;17.98;34.09;101744.84;15607248;28;20410;-50
2023/05/29 20:18:50;;;;;;;0.57;0.22;;;;;;;17.74;35.86;101747.53;15612772;28;20037;-49
2023/05/29 20:26:24;;;;;;;1.67;0.40;;;;;;;17.64;35.85;101760.81;15625966;28;20049;-49
2023/05/29 20:33:56;;;;;;;0.65;0.30;;;;;;;17.29;36.19;101764.22;15612550;28;20038;-56
2023/05/29 20:41:32;;;;;;;2.87;1.03;;;;;;;16.79;36.74;101753.63;15608760;28;20375;-47
2023/05/29 20:49:05;;;;;;;0.93;0.57;;;;;;;16.12;37.62;101768.84;15605433;28;20080;-51
2023/05/29 20:56:40;;;;;;;3.70;0.93;;;;;;;16.50;37.87;101776.81;15603836;28;20046;-50
2023/05/29 21:04:14;;;;;;;1.00;0.40;;;;;;;16.49;37.58;101769.75;15618352;28;20049;-49
2023/05/29 21:11:49;;;;;;;0.38;0.38;;;;;;;16.21;38.70;101766.69;15628166;28;20124;-51
2023/05/29 21:19:22;;;;;;;1.20;0.45;;;;;;;16.19;38.62;101764.22;15611449;28;20045;-51
2023/05/29 21:26:56;;;;;;;;;;;;;;;16.13;39.12;101773.22;15588055;28;20472;-48
2023/05/29 21:34:33;;;;;;;0.30;0.17;;;;;;;15.82;39.47;101766.00;15624486;28;20416;-49
2023/05/29 21:42:09;;;;;;;2.67;0.77;;;;;;;15.81;40.15;101767.88;15602802;28;20504;-51
2023/05/29 21:49:42;;;;;;;0.55;0.40;;;;;;;16.11;39.35;101769.91;15600452;28;20095;-52
2023/05/29 21:57:16;;;;;;;0.65;0.35;;;;;;;16.09;39.67;101774.75;15634491;28;20049;-50
2023/05/29 22:04:49;;;;;;;0.52;0.10;;;;;;;15.82;40.37;101774.13;15589393;28;20046;-52
2023/05/29 22:12:25;;;;;;;0.10;0.10;;;;;;;15.75;40.97;101782.25;15603864;28;20047;-53
2023/05/29 22:19:57;;;;;;;0.90;0.73;;;;;;;15.58;42.12;101783.81;15625041;28;20081;-52
2023/05/29 22:27:32;;;;;;;2.53;0.30;;;;;;;15.43;41.92;101799.50;15619667;28;20069;-52
2023/05/29 22:35:05;;;;;;;1.33;0.85;;;;;;;15.21;42.32;101799.84;15619109;28;20041;-51
2023/05/29 22:42:39;;;;;;;1.77;0.30;;;;;;;14.86;44.50;101810.16;15598626;28;20135;-53
2023/05/29 22:50:12;;;;;;;0.80;0.50;;;;;;;14.80;43.48;101803.72;15614438;28;20147;-51
2023/05/29 22:57:46;;;;;;;0.07;0.07;;;;;;;14.54;44.42;101792.97;15620146;28;20670;-55
2023/05/29 23:05:19;;;;;;;0.70;0.63;;;;;;;14.31;44.97;101804.19;15598135;28;20132;-51
2023/05/29 23:12:53;;;;;;;1.20;0.47;;;;;;;14.01;46.38;101803.78;15618103;28;20045;-52
2023/05/29 23:20:26;;;;;;;0.20;0.20;;;;;;;13.84;46.54;101808.72;15617011;28;20133;-52
2023/05/29 23:28:00;;;;;;;0.87;0.83;;;;;;;13.50;48.64;101802.44;15597959;28;20045;-52
2023/05/29 23:35:33;;;;;;;3.20;0.85;;;;;;;13.38;50.48;101809.47;15614383;28;20295;-54
2023/05/29 23:43:08;;;;;;;1.00;0.82;;;;;;;12.98;51.41;101797.66;15596948;28;20067;-53
2023/05/29 23:50:42;;;;;;;0.70;0.57;;;;;;;12.66;52.26;101802.66;15612038;28;20499;-53
2023/05/29 23:58:16;;;;;;;1.15;0.63;;;;;;;12.50;52.65;101811.06;15611146;28;20528;-52
